Time;durP1;ratioP1;P1;durP2;ratioP2;P2;SDS_P1;SDS_P2;PMS_P1;PMS_P2;Temp;Humidity;BMP_temperature;BMP_pressure;BME280_temperature;BME280_humidity;BME280_pressure;Samples;Min_cycle;Max_cycle;Signal;HPM_P1;HPM_P2
2023/12/22 00:01:07;;;;;;;19.48;13.57;;;;;;;6.34;71.68;99662.66;4889572;29;20055;-80
2023/12/22 00:03:34;;;;;;;23.13;13.00;;;;;;;6.70;70.31;99705.22;4879765;29;20059;-79
2023/12/22 00:06:01;;;;;;;23.65;14.60;;;;;;;6.55;70.58;99676.63;4881802;29;20102;-80
2023/12/22 00:08:27;;;;;;;23.20;14.27;;;;;;;6.14;70.80;99615.13;4890762;29;20496;-80
2023/12/22 00:10:54;;;;;;;27.50;14.40;;;;;;;6.73;69.77;99676.81;4890299;29;20453;-78
2023/12/22 00:13:21;;;;;;;20.77;14.52;;;;;;;6.77;69.23;99659.75;4919852;28;20491;-80
2023/12/22 00:15:50;;;;;;;23.05;14.55;;;;;;;6.99;69.26;99663.09;4885691;29;20051;-80
2023/12/22 00:18:17;;;;;;;22.60;14.35;;;;;;;7.11;67.60;99647.97;4877040;29;20289;-81
2023/12/22 00:20:46;;;;;;;17.45;13.85;;;;;;;6.08;68.23;99498.88;4883115;29;20055;-80
2023/12/22 00:23:12;;;;;;;24.33;15.05;;;;;;;6.92;68.49;99625.88;4904627;29;20052;-78
2023/12/22 00:25:39;;;;;;;18.70;12.20;;;;;;;6.71;68.00;99596.13;4877056;29;20047;-79
2023/12/22 00:28:09;;;;;;;19.35;14.40;;;;;;;6.63;67.94;99610.84;4902842;29;20499;-79
2023/12/22 00:30:37;;;;;;;22.30;14.50;;;;;;;6.28;67.76;99555.09;4899836;29;20047;-81
2023/12/22 00:33:13;;;;;;;24.25;15.40;;;;;;;6.81;68.27;99620.72;4858855;29;20322;-82
2023/12/22 00:35:42;;;;;;;22.33;14.38;;;;;;;6.78;67.88;99590.19;4884675;29;20044;-80
2023/12/22 00:38:10;;;;;;;23.90;15.18;;;;;;;6.87;68.20;99599.09;4874737;29;20051;-80
2023/12/22 00:40:39;;;;;;;24.02;15.07;;;;;;;7.00;67.58;99607.56;4896829;28;20440;-81
2023/12/22 00:43:06;;;;;;;28.70;14.93;;;;;;;6.93;66.18;99556.31;4856523;29;20058;-79
2023/12/22 00:45:38;;;;;;;22.90;14.80;;;;;;;7.16;65.70;99580.63;4865880;29;20060;-81
2023/12/22 00:48:05;;;;;;;22.75;13.57;;;;;;;7.16;66.15;99563.94;4847701;29;20119;-82
2023/12/22 00:50:32;;;;;;;23.88;13.40;;;;;;;7.30;64.56;99546.84;4882725;29;20052;-81
2023/12/22 00:52:58;;;;;;;21.10;13.40;;;;;;;7.30;64.57;99541.56;4881275;29;20343;-80
2023/12/22 00:55:25;;;;;;;22.05;12.73;;;;;;;7.39;64.49;99560.03;4869660;29;20078;-80
2023/12/22 00:57:53;;;;;;;21.63;12.10;;;;;;;7.53;64.39;99552.66;4873889;29;20139;-82
2023/12/22 01:00:20;;;;;;;20.52;12.20;;;;;;;7.79;63.53;99577.47;4896680;29;20082;-80
2023/12/22 01:02:47;;;;;;;15.52;10.90;;;;;;;7.98;63.08;99575.72;4874994;29;20679;-80
2023/12/22 01:05:19;;;;;;;18.35;10.45;;;;;;;7.87;63.30;99537.94;4862212;29;20060;-83
2023/12/22 01:07:46;;;;;;;13.80;8.60;;;;;;;8.24;63.21;99568.78;4858962;29;20105;-81
2023/12/22 01:10:13;;;;;;;14.98;8.07;;;;;;;8.37;62.97;99534.06;4861361;29;20411;-81
2023/12/22 01:12:40;;;;;;;15.18;9.20;;;;;;;8.19;63.50;99494.38;4865123;29;20111;-80
2023/12/22 01:15:07;;;;;;;11.13;7.45;;;;;;;8.40;64.80;99527.69;4853866;29;20055;-78
2023/12/22 01:17:34;;;;;;;11.52;6.47;;;;;;;8.60;64.46;99549.56;4876193;29;20060;-81
2023/12/22 01:20:04;;;;;;;9.75;5.85;;;;;;;8.65;64.44;99548.13;4846638;29;20448;-82
2023/12/22 01:22:38;;;;;;;11.27;6.20;;;;;;;8.73;65.16;99548.19;4876617;29;20055;-80
2023/12/22 01:25:07;;;;;;;8.38;4.63;;;;;;;8.84;64.86;99568.34;4872591;29;20296;-82
2023/12/22 01:27:38;;;;;;;9.20;5.67;;;;;;;8.68;65.35;99547.81;4862709;29;20483;-79
2023/12/22 01:30:06;;;;;;;8.82;4.78;;;;;;;8.86;65.18;99566.38;4858134;29;20315;-81
2023/12/22 01:32:42;;;;;;;6.13;4.35;;;;;;;8.72;65.59;99543.06;4858256;29;20548;-82
2023/12/22 01:35:14;;;;;;;9.32;4.45;;;;;;;8.77;65.69;99552.22;4847463;29;20100;-81
2023/12/22 01:37:40;;;;;;;6.22;3.53;;;;;;;8.85;66.25;99553.28;4838402;29;20493;-80
2023/12/22 01:40:08;;;;;;;4.30;3.15;;;;;;;8.97;66.52;99560.84;4859523;29;20079;-81
2023/12/22 01:42:35;;;;;;;7.93;4.00;;;;;;;8.95;66.73;99538.16;4875127;29;20056;-81
2023/12/22 01:45:06;;;;;;;5.85;2.92;;;;;;;8.95;66.20;99543.44;4865330;29;20082;-80
2023/12/22 01:47:36;;;;;;;4.63;3.08;;;;;;;8.67;66.65;99498.53;4877998;29;20048;-81
2023/12/22 01:50:06;;;;;;;12.68;3.90;;;;;;;8.80;67.07;99532.56;4856585;29;20058;-81
2023/12/22 01:52:39;;;;;;;10.27;3.88;;;;;;;8.72;67.43;99532.50;4881975;29;20087;-80
2023/12/22 01:55:16;;;;;;;5.75;3.28;;;;;;;8.83;67.69;99549.94;4860227;29;20279;-80
2023/12/22 01:57:44;;;;;;;7.65;2.80;;;;;;;8.80;67.07;99526.44;4868788;29;20079;-79
2023/12/22 02:00:15;;;;;;;3.88;2.55;;;;;;;8.91;66.68;99536.81;4856142;29;20305;-81
2023/12/22 02:02:42;;;;;;;7.57;2.65;;;;;;;8.31;65.98;99416.50;4847475;29;20063;-79
2023/12/22 02:05:11;;;;;;;8.02;2.45;;;;;;;8.94;65.73;99524.09;4872500;29;20056;-78
2023/12/22 02:07:42;;;;;;;9.27;1.77;;;;;;;8.59;65.01;99452.66;4879778;29;20511;-78
2023/12/22 02:10:10;;;;;;;3.47;1.65;;;;;;;9.12;64.27;99517.94;4867363;29;20048;-80
2023/12/22 02:12:40;;;;;;;5.18;1.67;;;;;;;8.81;63.26;99438.13;4864922;29;20348;-78
2023/12/22 02:15:07;;;;;;;5.18;1.60;;;;;;;9.24;63.02;99494.69;4871944;29;20056;-82
2023/12/22 02:17:35;;;;;;;6.80;1.25;;;;;;;9.53;61.69;99505.81;4880819;29;20465;-82
2023/12/22 02:20:04;;;;;;;1.25;1.00;;;;;;;9.64;61.46;99496.78;4861313;29;20055;-81
2023/12/22 02:22:31;;;;;;;5.05;2.22;;;;;;;9.77;60.44;99493.69;4871038;29;20388;-83
2023/12/22 02:24:58;;;;;;;4.38;1.25;;;;;;;9.72;59.27;99466.84;4837755;29;20053;-82
2023/12/22 02:27:27;;;;;;;4.80;1.45;;;;;;;10.03;59.01;99512.22;4847799;29;20310;-82
2023/12/22 02:30:03;;;;;;;2.90;1.05;;;;;;;10.23;58.07;99528.69;4821771;29;20521;-80
2023/12/22 02:32:35;;;;;;;1.45;1.20;;;;;;;10.14;57.20;99516.38;4836887;29;20170;-80
2023/12/22 02:35:10;;;;;;;3.15;1.00;;;;;;;10.30;57.22;99524.44;4854594;29;20080;-80
2023/12/22 02:37:40;;;;;;;1.23;0.80;;;;;;;10.44;55.94;99510.56;4848800;29;20116;-80
2023/12/22 02:40:09;;;;;;;3.65;0.93;;;;;;;10.54;55.64;99472.44;4844078;29;20056;-80
2023/12/22 02:42:38;;;;;;;4.53;0.95;;;;;;;11.01;53.12;99504.47;4857782;29;20105;-80
2023/12/22 02:45:06;;;;;;;1.65;1.00;;;;;;;10.98;52.32;99456.19;4842702;29;20052;-79
2023/12/22 02:47:33;;;;;;;1.60;0.70;;;;;;;11.38;52.75;99503.13;4844763;29;20056;-80
2023/12/22 02:50:00;;;;;;;1.05;0.88;;;;;;;11.44;52.04;99491.81;4830422;29;20084;-80
2023/12/22 02:52:27;;;;;;;1.25;0.60;;;;;;;11.40;51.51;99477.22;4859621;29;20469;-80
2023/12/22 02:54:53;;;;;;;4.05;0.93;;;;;;;11.52;51.98;99507.75;4861901;29;20393;-81
2023/12/22 02:57:22;;;;;;;1.38;0.88;;;;;;;11.57;50.43;99509.91;4853771;29;20493;-81
2023/12/22 02:59:49;;;;;;;2.85;1.10;;;;;;;11.20;51.08;99452.84;4862046;29;20059;-79
2023/12/22 03:02:18;;;;;;;1.05;0.93;;;;;;;11.26;51.19;99452.19;4857240;29;20505;-81
2023/12/22 03:04:48;;;;;;;1.08;0.60;;;;;;;11.70;49.70;99512.00;4837543;29;20561;-81
2023/12/22 03:07:14;;;;;;;2.15;1.15;;;;;;;11.65;49.92;99488.63;4897511;29;20332;-78
2023/12/22 03:09:42;;;;;;;2.35;0.70;;;;;;;11.83;49.20;99495.56;4917828;29;20051;-82
2023/12/22 03:12:10;;;;;;;2.05;0.80;;;;;;;11.77;49.38;99475.78;4901539;29;20383;-79
2023/12/22 03:14:40;;;;;;;1.23;0.80;;;;;;;11.81;49.39;99481.59;4901018;29;20508;-81
2023/12/22 03:17:07;;;;;;;2.03;0.70;;;;;;;11.86;48.70;99479.25;4909718;29;20050;-80
2023/12/22 03:19:34;;;;;;;1.80;0.70;;;;;;;11.92;47.74;99479.41;4898973;28;20217;-80
2023/12/22 03:22:01;;;;;;;2.70;0.70;;;;;;;12.09;46.25;99498.81;4880420;29;20523;-79
2023/12/22 03:24:28;;;;;;;0.60;0.55;;;;;;;11.74;46.54;99399.03;4890778;29;20052;-78
2023/12/22 03:26:56;;;;;;;1.15;0.50;;;;;;;12.13;46.59;99441.56;4883760;29;20094;-80
2023/12/22 03:29:23;;;;;;;1.77;0.80;;;;;;;12.53;46.22;99492.91;4851902;29;20051;-81
2023/12/22 03:31:49;;;;;;;0.55;0.55;;;;;;;11.89;45.48;99367.22;4862610;28;20087;-80
2023/12/22 03:34:17;;;;;;;0.80;0.55;;;;;;;12.92;43.84;99501.81;4870023;29;20369;-81
2023/12/22 03:36:48;;;;;;;1.30;0.70;;;;;;;13.01;43.78;99500.69;4911998;28;20050;-80
2023/12/22 03:39:16;;;;;;;1.60;0.70;;;;;;;12.33;43.35;99374.59;4904222;28;20421;-80
2023/12/22 03:41:44;;;;;;;1.42;0.85;;;;;;;12.57;41.75;99371.75;4904216;29;20553;-80
2023/12/22 03:44:11;;;;;;;3.70;0.70;;;;;;;12.12;42.01;99309.56;4900449;29;20051;-81
2023/12/22 03:46:42;;;;;;;1.05;0.65;;;;;;;13.02;42.02;99438.44;4923432;29;20126;-80
2023/12/22 03:49:09;;;;;;;0.82;0.60;;;;;;;13.66;40.87;99531.31;4901049;29;20091;-80
2023/12/22 03:51:37;;;;;;;3.15;1.30;;;;;;;13.50;40.50;99478.97;4887036;29;20048;-83
2023/12/22 03:54:04;;;;;;;2.70;0.82;;;;;;;13.79;40.09;99496.84;4878789;29;20063;-80
2023/12/22 03:56:31;;;;;;;2.03;0.77;;;;;;;13.97;39.49;99512.44;4868331;29;20347;-79
2023/12/22 03:58:57;;;;;;;2.90;0.70;;;;;;;14.02;39.68;99506.56;4870549;29;20135;-80
2023/12/22 04:01:30;;;;;;;2.40;0.68;;;;;;;13.90;39.47;99475.00;4865578;29;20150;-80
2023/12/22 04:03:57;;;;;;;4.03;0.73;;;;;;;14.09;39.67;99507.47;4872871;29;20295;-79
2023/12/22 04:06:24;;;;;;;1.98;0.75;;;;;;;14.03;39.20;99497.53;4889314;29;20223;-80
2023/12/22 04:08:50;;;;;;;1.50;0.60;;;;;;;14.00;39.07;99497.91;4901209;29;20059;-80
2023/12/22 04:11:17;;;;;;;1.27;0.80;;;;;;;13.89;39.05;99489.38;4918899;29;20130;-80
2023/12/22 04:13:44;;;;;;;0.60;0.60;;;;;;;14.20;38.62;99530.19;4925622;28;20513;-80
2023/12/22 04:16:11;;;;;;;1.20;0.88;;;;;;;14.10;38.43;99519.81;4890950;29;20061;-80
2023/12/22 04:18:39;;;;;;;1.45;0.70;;;;;;;14.24;38.00;99528.81;4887750;29;20564;-80
2023/12/22 04:21:06;;;;;;;1.35;0.82;;;;;;;14.24;38.17;99534.97;4867651;29;20728;-81
2023/12/22 04:23:33;;;;;;;0.90;0.68;;;;;;;14.27;37.80;99537.28;4865042;29;20305;-80
2023/12/22 04:26:01;;;;;;;1.67;0.73;;;;;;;14.39;37.72;99556.31;4890555;29;20067;-81
2023/12/22 04:28:28;;;;;;;1.73;0.90;;;;;;;14.03;38.12;99513.53;4863385;29;20083;-80
2023/12/22 04:30:55;;;;;;;3.65;0.80;;;;;;;14.18;37.73;99535.72;4889280;29;20488;-80
2023/12/22 04:33:23;;;;;;;1.17;0.80;;;;;;;14.35;37.56;99563.06;4885177;28;20052;-81
2023/12/22 04:35:52;;;;;;;2.42;1.02;;;;;;;14.35;37.40;99551.56;4913637;29;20506;-81
2023/12/22 04:38:19;;;;;;;1.80;1.00;;;;;;;14.32;37.18;99550.91;4928735;28;20055;-81
2023/12/22 04:40:45;;;;;;;0.65;0.65;;;;;;;14.36;37.18;99556.69;4884349;29;20128;-81
2023/12/22 04:43:12;;;;;;;2.60;0.80;;;;;;;14.19;37.85;99556.06;4898058;29;20051;-80
2023/12/22 04:45:39;;;;;;;1.02;0.57;;;;;;;14.26;37.47;99567.66;4880458;29;20495;-78
2023/12/22 04:48:06;;;;;;;2.53;0.88;;;;;;;14.10;37.57;99571.34;4889542;29;20141;-80
2023/12/22 04:50:33;;;;;;;2.30;0.85;;;;;;;14.24;37.55;99579.53;4874295;29;20407;-80
2023/12/22 04:53:03;;;;;;;2.97;0.95;;;;;;;14.04;37.32;99568.59;4902800;29;20485;-79
2023/12/22 04:55:30;;;;;;;1.98;0.70;;;;;;;13.99;38.38;99589.66;4885031;29;20539;-80
2023/12/22 04:57:57;;;;;;;2.42;0.95;;;;;;;13.95;38.25;99588.34;4874936;29;20535;-80
2023/12/22 05:00:25;;;;;;;1.88;0.70;;;;;;;13.40;38.39;99513.09;4897066;29;20407;-80
2023/12/22 05:02:51;;;;;;;1.42;0.80;;;;;;;13.75;37.87;99578.22;4880570;28;20056;-81
2023/12/22 05:05:18;;;;;;;1.42;0.90;;;;;;;13.88;37.90;99607.78;4890362;29;20052;-79
2023/12/22 05:07:52;;;;;;;0.90;0.73;;;;;;;13.94;37.35;99613.41;4843582;29;20281;-81
2023/12/22 05:10:23;;;;;;;3.42;0.80;;;;;;;13.60;37.87;99569.38;4876771;29;20056;-81
2023/12/22 05:12:50;;;;;;;1.58;0.90;;;;;;;13.89;37.66;99614.75;4879157;29;20060;-80
2023/12/22 05:15:19;;;;;;;2.45;1.27;;;;;;;13.60;38.14;99580.03;4881233;29;20722;-80
2023/12/22 05:17:46;;;;;;;1.00;0.77;;;;;;;13.65;37.84;99609.66;4871808;29;20067;-81
2023/12/22 05:20:14;;;;;;;1.80;1.00;;;;;;;13.76;37.77;99635.91;4824691;29;20059;-80
2023/12/22 05:22:41;;;;;;;2.65;0.80;;;;;;;13.77;37.72;99637.56;4810632;29;20417;-80
2023/12/22 05:25:09;;;;;;;5.68;0.82;;;;;;;13.56;37.76;99608.06;4846638;29;20304;-80
2023/12/22 05:27:41;;;;;;;3.05;0.85;;;;;;;13.65;37.91;99636.34;4837389;29;20412;-78
2023/12/22 05:30:08;;;;;;;1.67;0.98;;;;;;;13.45;37.65;99607.50;4871568;29;20335;-80
2023/12/22 05:32:35;;;;;;;2.40;0.95;;;;;;;13.60;37.80;99649.38;4849015;29;20045;-77
2023/12/22 05:35:01;;;;;;;3.92;1.52;;;;;;;13.55;38.18;99647.25;4853202;29;20073;-80
2023/12/22 05:37:45;;;;;;;4.03;0.90;;;;;;;13.58;37.74;99646.06;4861274;29;20059;-80
2023/12/22 05:40:19;;;;;;;1.30;1.08;;;;;;;13.43;37.70;99628.16;4840129;29;20520;-80
2023/12/22 05:42:46;;;;;;;4.07;1.17;;;;;;;13.40;37.68;99615.22;4831130;29;20092;-80
2023/12/22 05:45:14;;;;;;;3.53;1.00;;;;;;;13.71;37.26;99640.94;4809451;29;20367;-79
2023/12/22 05:47:41;;;;;;;2.10;1.00;;;;;;;13.61;37.56;99649.19;4830706;29;20406;-81
2023/12/22 05:50:13;;;;;;;1.55;1.20;;;;;;;13.38;38.16;99649.22;4845819;29;20123;-80
2023/12/22 05:52:49;;;;;;;1.23;0.95;;;;;;;13.40;37.86;99659.69;4806392;29;20135;-80
2023/12/22 05:55:23;;;;;;;4.75;1.02;;;;;;;13.43;37.79;99654.84;4811262;29;20229;-80
2023/12/22 05:57:58;;;;;;;2.75;0.98;;;;;;;13.33;38.14;99667.56;4816574;29;20388;-80
2023/12/22 06:00:26;;;;;;;3.70;0.88;;;;;;;13.11;37.74;99634.53;4839694;29;20837;-80
2023/12/22 06:03:01;;;;;;;3.42;2.13;;;;;;;13.17;38.32;99654.31;4854018;29;20088;-82
2023/12/22 06:05:31;;;;;;;5.60;1.58;;;;;;;13.01;38.20;99629.44;4853404;29;20530;-80
2023/12/22 06:07:58;;;;;;;4.27;1.00;;;;;;;13.28;37.68;99661.94;4875361;29;20044;-81
2023/12/22 06:10:25;;;;;;;2.63;1.00;;;;;;;12.88;37.95;99602.53;4875265;29;20551;-81
2023/12/22 06:12:52;;;;;;;1.92;1.05;;;;;;;12.88;37.70;99607.84;4873747;29;20045;-82
2023/12/22 06:15:19;;;;;;;5.03;1.30;;;;;;;13.20;37.55;99656.63;4849919;29;20202;-82
2023/12/22 06:17:46;;;;;;;1.23;0.80;;;;;;;13.35;37.46;99673.56;4858048;29;20131;-81
2023/12/22 06:20:13;;;;;;;5.00;1.40;;;;;;;13.30;37.05;99664.41;4854510;29;20145;-79
2023/12/22 06:22:40;;;;;;;1.88;0.75;;;;;;;13.08;37.44;99650.03;4861569;29;20528;-81
2023/12/22 06:25:10;;;;;;;2.15;1.00;;;;;;;13.23;36.82;99675.78;4870107;29;20392;-80
2023/12/22 06:27:37;;;;;;;4.30;1.25;;;;;;;13.16;37.06;99652.66;4878753;29;20269;-80
2023/12/22 06:30:07;;;;;;;1.67;1.27;;;;;;;13.34;36.73;99671.88;4871555;29;20440;-80
2023/12/22 06:32:34;;;;;;;2.80;1.20;;;;;;;13.20;36.91;99645.97;4871207;29;20052;-81
2023/12/22 06:35:02;;;;;;;1.98;1.13;;;;;;;13.32;36.94;99681.06;4890409;29;20336;-81
2023/12/22 06:37:29;;;;;;;3.35;1.40;;;;;;;13.18;37.14;99677.28;4869151;29;20492;-81
2023/12/22 06:39:56;;;;;;;4.22;1.45;;;;;;;13.22;37.28;99684.75;4884648;29;20127;-81
2023/12/22 06:42:22;;;;;;;1.60;1.50;;;;;;;13.10;36.63;99648.03;4875927;29;20044;-80
2023/12/22 06:44:54;;;;;;;2.00;1.02;;;;;;;13.29;36.65;99681.44;4868791;29;20396;-81
2023/12/22 06:47:23;;;;;;;3.40;1.25;;;;;;;13.34;36.00;99666.56;4856850;29;20060;-81
2023/12/22 06:49:52;;;;;;;4.72;0.98;;;;;;;13.39;36.18;99685.50;4869189;29;20052;-81
2023/12/22 06:52:20;;;;;;;5.20;1.63;;;;;;;13.33;36.41;99680.91;4882643;29;20064;-80
2023/12/22 06:54:47;;;;;;;2.42;1.23;;;;;;;13.16;36.86;99680.13;4881375;29;20056;-81
2023/12/22 06:57:14;;;;;;;2.65;1.25;;;;;;;12.98;37.29;99664.41;4873876;29;20079;-81
2023/12/22 06:59:49;;;;;;;1.95;1.52;;;;;;;13.00;37.56;99674.91;4852138;29;20147;-81
2023/12/22 07:02:22;;;;;;;4.57;1.05;;;;;;;12.93;38.10;99684.59;4838631;29;20052;-81
2023/12/22 07:05:25;;;;;;;3.28;1.02;;;;;;;12.72;37.86;99699.34;4870972;29;20424;-82
2023/12/22 07:07:55;;;;;;;4.13;1.40;;;;;;;12.40;38.42;99652.34;4872747;29;20178;-81
2023/12/22 07:10:22;;;;;;;7.10;1.95;;;;;;;12.78;37.81;99711.13;4852573;29;20459;-81
2023/12/22 07:12:49;;;;;;;2.67;1.20;;;;;;;12.70;38.40;99701.34;4884233;29;20048;-80
2023/12/22 07:15:21;;;;;;;7.68;1.48;;;;;;;12.17;39.19;99647.75;4858875;29;20342;-81
2023/12/22 07:17:56;;;;;;;5.75;4.13;;;;;;;12.60;38.21;99722.00;4835343;29;20434;-81
2023/12/22 07:20:23;;;;;;;8.05;1.65;;;;;;;12.50;37.97;99700.91;4891001;29;20059;-80
2023/12/22 07:22:59;;;;;;;6.43;1.48;;;;;;;12.74;38.34;99750.59;4811243;29;20489;-80
2023/12/22 07:25:29;;;;;;;2.60;1.40;;;;;;;12.73;37.60;99726.78;4825890;29;20052;-81
2023/12/22 07:27:56;;;;;;;2.67;1.27;;;;;;;12.76;36.93;99734.44;4848591;29;20444;-81
2023/12/22 07:30:24;;;;;;;6.38;1.70;;;;;;;12.86;37.56;99751.03;4882793;29;20491;-82
2023/12/22 07:32:52;;;;;;;4.20;1.00;;;;;;;12.20;36.56;99651.91;4879348;29;20135;-80
2023/12/22 07:35:19;;;;;;;1.50;1.00;;;;;;;12.85;37.11;99752.06;4896365;29;20335;-80
2023/12/22 07:37:46;;;;;;;4.63;0.88;;;;;;;12.75;37.41;99740.78;4891078;29;20346;-81
2023/12/22 07:40:14;;;;;;;3.20;1.15;;;;;;;12.24;37.86;99679.00;4860648;29;20117;-82
2023/12/22 07:42:44;;;;;;;1.33;0.85;;;;;;;13.01;36.53;99765.31;4901293;29;20512;-80
2023/12/22 07:45:11;;;;;;;6.78;1.67;;;;;;;13.28;36.05;99799.69;4835632;29;20063;-80
2023/12/22 07:47:41;;;;;;;1.77;0.80;;;;;;;13.34;35.72;99777.69;4854400;29;20059;-82
2023/12/22 07:50:11;;;;;;;2.08;0.90;;;;;;;13.31;35.38;99768.22;4886203;28;20058;-81
2023/12/22 07:52:38;;;;;;;1.40;1.10;;;;;;;13.66;34.64;99798.81;4878001;29;20504;-81
2023/12/22 07:55:11;;;;;;;1.58;0.82;;;;;;;13.78;34.44;99801.09;4880013;29;20472;-79
2023/12/22 07:57:38;;;;;;;1.48;1.00;;;;;;;13.89;34.09;99798.84;4878566;29;20054;-81
2023/12/22 08:00:06;;;;;;;1.30;1.00;;;;;;;13.91;33.67;99806.69;4881004;29;20056;-81
2023/12/22 08:02:33;;;;;;;3.30;1.27;;;;;;;13.85;34.72;99799.38;4878680;29;20526;-81
2023/12/22 08:04:59;;;;;;;1.95;1.10;;;;;;;14.08;34.03;99823.41;4898681;29;20388;-81
2023/12/22 08:07:26;;;;;;;2.63;1.48;;;;;;;13.76;33.99;99787.97;4886200;29;20451;-81
2023/12/22 08:09:53;;;;;;;5.40;1.02;;;;;;;13.89;34.12;99793.53;4871218;29;20486;-82
2023/12/22 08:12:20;;;;;;;6.78;1.10;;;;;;;14.15;33.50;99816.38;4924627;29;20138;-81
2023/12/22 08:14:48;;;;;;;1.92;0.88;;;;;;;14.10;33.34;99787.53;4901061;29;20456;-82
2023/12/22 08:17:15;;;;;;;4.60;1.98;;;;;;;14.23;33.21;99789.59;4898618;29;20086;-82
2023/12/22 08:19:43;;;;;;;2.40;1.10;;;;;;;14.46;32.80;99804.75;4887758;29;20063;-81
2023/12/22 08:22:16;;;;;;;2.40;0.65;;;;;;;14.65;31.92;99804.25;4885754;29;20080;-82
2023/12/22 08:24:44;;;;;;;6.45;1.10;;;;;;;14.43;32.67;99767.72;4910802;29;20083;-81
2023/12/22 08:27:12;;;;;;;3.63;1.10;;;;;;;14.65;32.85;99801.56;4870579;29;20279;-81
2023/12/22 08:29:39;;;;;;;8.50;1.20;;;;;;;14.45;32.63;99749.69;4897066;29;20047;-80
2023/12/22 08:32:06;;;;;;;3.13;1.20;;;;;;;15.00;31.97;99811.72;4880130;29;20044;-81
2023/12/22 08:34:38;;;;;;;4.05;1.38;;;;;;;15.05;32.01;99810.19;4866039;29;20056;-81
2023/12/22 08:37:08;;;;;;;2.97;0.93;;;;;;;15.10;32.11;99828.34;4849408;29;20051;-81
2023/12/22 08:39:35;;;;;;;4.35;1.10;;;;;;;15.09;32.07;99827.50;4880747;29;20571;-81
2023/12/22 08:42:03;;;;;;;6.40;1.40;;;;;;;15.07;31.50;99810.84;4907455;29;20170;-81
2023/12/22 08:44:30;;;;;;;3.08;1.13;;;;;;;15.32;31.66;99842.63;4918877;29;20137;-81
2023/12/22 08:46:57;;;;;;;4.30;1.08;;;;;;;15.32;31.49;99845.28;4896344;29;20047;-81
2023/12/22 08:49:24;;;;;;;1.80;0.82;;;;;;;15.33;31.82;99860.31;4883244;29;20462;-81
2023/12/22 08:51:51;;;;;;;8.18;0.90;;;;;;;15.38;31.19;99861.41;4874736;29;20052;-80
2023/12/22 08:54:18;;;;;;;4.30;1.17;;;;;;;15.39;31.46;99872.97;4883549;29;20051;-81
2023/12/22 08:56:45;;;;;;;2.58;1.10;;;;;;;15.52;30.91;99870.44;4922633;29;20531;-81
2023/12/22 08:59:12;;;;;;;3.70;0.95;;;;;;;15.67;30.55;99875.75;4886310;29;20069;-81
2023/12/22 09:01:40;;;;;;;4.25;1.17;;;;;;;15.70;30.87;99890.66;4890388;29;20051;-81
2023/12/22 09:04:11;;;;;;;3.22;1.05;;;;;;;15.61;30.64;99876.53;4877808;29;20091;-80
2023/12/22 09:06:38;;;;;;;5.07;1.15;;;;;;;15.51;30.66;99842.03;4870569;29;20289;-81
2023/12/22 09:09:06;;;;;;;3.05;1.65;;;;;;;15.80;30.93;99896.53;4877871;29;20135;-80
2023/12/22 09:11:32;;;;;;;4.63;2.28;;;;;;;14.57;31.70;99704.69;4891590;29;20591;-82
2023/12/22 09:13:59;;;;;;;1.65;0.80;;;;;;;15.43;30.85;99812.72;4892460;29;20857;-80
2023/12/22 09:16:27;;;;;;;1.65;0.70;;;;;;;15.32;30.32;99791.81;4879334;29;20091;-80
2023/12/22 09:18:54;;;;;;;1.60;0.88;;;;;;;15.75;30.93;99869.50;4906749;29;20054;-80
2023/12/22 09:21:23;;;;;;;3.08;1.55;;;;;;;15.72;30.81;99870.72;4879197;29;20055;-81
2023/12/22 09:23:50;;;;;;;2.05;1.35;;;;;;;15.89;30.62;99882.03;4864556;29;20478;-81
2023/12/22 09:26:17;;;;;;;5.35;2.35;;;;;;;15.45;30.02;99794.63;4881962;29;20094;-79
2023/12/22 09:28:56;;;;;;;11.38;0.90;;;;;;;16.18;29.87;99904.38;4886856;29;20060;-80
2023/12/22 09:31:23;;;;;;;3.00;0.65;;;;;;;16.36;30.13;99942.28;4902379;29;20475;-80
2023/12/22 09:33:58;;;;;;;3.78;1.20;;;;;;;16.47;29.51;99921.38;4883644;29;20055;-81
2023/12/22 09:36:28;;;;;;;3.33;0.98;;;;;;;16.43;29.58;99873.53;4870635;29;20059;-81
2023/12/22 09:38:57;;;;;;;2.00;0.80;;;;;;;16.81;28.94;99920.66;4828925;29;20044;-80
2023/12/22 09:41:25;;;;;;;4.13;0.88;;;;;;;16.93;29.54;99929.00;4858763;29;20051;-81
2023/12/22 09:44:03;;;;;;;3.90;0.70;;;;;;;17.00;29.04;99911.94;4838697;29;20998;-81
2023/12/22 09:46:31;;;;;;;10.13;1.00;;;;;;;17.22;28.30;99910.03;4815692;29;20442;-79
2023/12/22 09:49:05;;;;;;;6.45;1.10;;;;;;;16.99;28.45;99877.28;4836074;29;20444;-81
2023/12/22 09:51:37;;;;;;;12.45;0.98;;;;;;;17.10;28.98;99903.56;4825859;29;20198;-80
2023/12/22 09:54:07;;;;;;;3.83;0.80;;;;;;;16.94;28.09;99858.28;4844780;29;20432;-80
2023/12/22 09:56:34;;;;;;;3.53;0.65;;;;;;;17.13;28.66;99883.56;4881769;29;20427;-80
2023/12/22 09:59:01;;;;;;;12.05;1.40;;;;;;;17.12;28.29;99871.19;4838460;29;20783;-81
2023/12/22 10:01:29;;;;;;;4.60;0.60;;;;;;;17.33;28.27;99889.03;4838295;29;20135;-82
2023/12/22 10:03:57;;;;;;;5.35;0.75;;;;;;;17.33;28.26;99895.25;4860670;29;20473;-80
2023/12/22 10:06:23;;;;;;;3.38;1.00;;;;;;;17.33;28.15;99911.34;4897233;29;20395;-84
2023/12/22 10:08:52;;;;;;;3.00;0.65;;;;;;;17.38;28.56;99902.69;4883972;29;20056;-81
2023/12/22 10:11:20;;;;;;;5.65;1.33;;;;;;;17.37;28.01;99876.91;4881103;29;20512;-79
2023/12/22 10:13:50;;;;;;;2.38;0.60;;;;;;;17.46;27.90;99905.22;4896776;29;20135;-80
2023/12/22 10:16:17;;;;;;;1.42;0.50;;;;;;;17.13;28.40;99837.97;4880911;29;20052;-79
2023/12/22 10:18:47;;;;;;;4.40;0.73;;;;;;;17.41;28.42;99891.59;4840591;29;20635;-79
2023/12/22 10:21:16;;;;;;;2.47;0.90;;;;;;;17.30;28.57;99875.00;4819080;29;20053;-81
2023/12/22 10:23:44;;;;;;;10.38;0.80;;;;;;;17.32;28.82;99856.03;4826493;29;20138;-80
2023/12/22 10:26:13;;;;;;;5.88;0.70;;;;;;;17.20;28.72;99852.25;4852387;29;20104;-81
2023/12/22 10:28:41;;;;;;;3.03;0.60;;;;;;;17.32;28.37;99864.06;4862998;29;20060;-81
2023/12/22 10:31:09;;;;;;;10.43;1.58;;;;;;;17.38;28.81;99878.53;4874114;29;20084;-80
2023/12/22 10:33:36;;;;;;;0.88;0.50;;;;;;;17.44;29.25;99875.09;4856683;29;20491;-82
2023/12/22 10:36:04;;;;;;;3.90;0.98;;;;;;;17.49;29.22;99862.72;4897710;29;20062;-81
2023/12/22 10:38:37;;;;;;;1.73;0.52;;;;;;;17.48;29.23;99887.09;4875023;29;20048;-80
2023/12/22 10:41:07;;;;;;;3.80;0.63;;;;;;;17.56;29.25;99878.03;4868584;29;20519;-80
2023/12/22 10:43:41;;;;;;;3.83;0.52;;;;;;;17.59;29.13;99877.63;4854216;29;20131;-81
2023/12/22 10:46:14;;;;;;;2.55;0.50;;;;;;;17.41;29.42;99838.75;4818080;29;20628;-80
2023/12/22 10:48:49;;;;;;;2.88;0.57;;;;;;;17.59;29.64;99850.78;4840039;29;20188;-81
2023/12/22 10:51:23;;;;;;;4.53;0.80;;;;;;;16.55;29.94;99677.41;4880838;29;20139;-80
2023/12/22 10:53:51;;;;;;;1.67;0.63;;;;;;;17.53;29.82;99852.44;4882768;29;20583;-80
2023/12/22 10:56:18;;;;;;;1.73;0.52;;;;;;;17.18;29.76;99785.38;4843681;29;20055;-81
2023/12/22 10:58:47;;;;;;;2.67;0.88;;;;;;;17.52;30.31;99856.13;4847770;29;20048;-81
2023/12/22 11:01:16;;;;;;;3.10;0.73;;;;;;;17.58;29.90;99828.50;4866368;29;20060;-81
2023/12/22 11:03:47;;;;;;;6.22;0.95;;;;;;;17.62;29.53;99834.28;4878977;29;20075;-82
2023/12/22 11:06:16;;;;;;;3.60;1.35;;;;;;;17.62;29.59;99828.91;4910150;29;20055;-80
2023/12/22 11:08:44;;;;;;;4.43;1.10;;;;;;;17.62;29.51;99824.41;4911086;29;20487;-82
2023/12/22 11:11:18;;;;;;;1.50;0.80;;;;;;;17.52;29.48;99821.22;4903766;29;20294;-82
2023/12/22 11:13:50;;;;;;;5.85;1.02;;;;;;;16.69;29.75;99681.81;4894830;29;20145;-82
2023/12/22 11:16:19;;;;;;;4.95;1.00;;;;;;;17.21;29.47;99771.59;4904003;29;20051;-82
2023/12/22 11:18:48;;;;;;;2.75;0.70;;;;;;;17.66;29.06;99831.00;4889787;29;20352;-84
2023/12/22 11:21:19;;;;;;;6.45;0.80;;;;;;;17.66;28.97;99833.69;4890877;29;20086;-81
2023/12/22 11:23:49;;;;;;;4.43;0.93;;;;;;;17.57;29.38;99831.38;4857774;29;20062;-81
2023/12/22 11:26:17;;;;;;;8.07;0.98;;;;;;;17.59;28.82;99819.41;4834404;29;20419;-81
2023/12/22 11:28:49;;;;;;;6.43;0.80;;;;;;;17.68;28.80;99804.78;4863133;29;20044;-82
2023/12/22 11:31:15;;;;;;;6.57;1.55;;;;;;;17.65;28.95;99801.69;4864960;29;20055;-82
2023/12/22 11:33:47;;;;;;;2.90;0.73;;;;;;;17.42;28.79;99759.91;4906902;29;20392;-81
2023/12/22 11:36:33;;;;;;;2.35;0.52;;;;;;;17.72;28.79;99805.22;4908264;29;20055;-83
2023/12/22 11:39:00;;;;;;;2.45;0.60;;;;;;;17.87;28.57;99794.34;4917017;29;20047;-82
2023/12/22 11:41:30;;;;;;;3.17;0.77;;;;;;;17.67;29.18;99773.63;4895718;29;20170;-82